createdAt,value
2018-08-03T00:01:22.478Z,4.20
2018-08-03T00:02:32.331Z,4.40
2018-08-03T00:03:48.914Z,4.30
2018-08-03T00:06:49.761Z,4.10
2018-08-03T00:08:04.824Z,4.20
2018-08-03T00:09:03.397Z,3.90
2018-08-03T00:10:06.990Z,4.30
2018-08-03T00:11:15.706Z,4.00
2018-08-03T00:12:13.766Z,4.10
2018-08-03T00:13:33.335Z,4.00
2018-08-03T00:14:29.041Z,4.30
2018-08-03T00:15:27.924Z,4.20
2018-08-03T00:16:36.124Z,4.20
2018-08-03T00:17:48.113Z,4.30
2018-08-03T00:18:54.468Z,4.20
2018-08-03T00:20:18.746Z,4.00
2018-08-03T00:20:55.814Z,4.00
2018-08-03T00:22:01.865Z,4.50
2018-08-03T00:23:02.794Z,4.90
2018-08-03T00:24:21.446Z,4.40
2018-08-03T00:25:29.745Z,4.50
2018-08-03T00:27:50.346Z,4.20
2018-08-03T00:28:46.875Z,4.50
2018-08-03T00:29:44.528Z,4.30
2018-08-03T00:30:52.422Z,4.30
2018-08-03T00:31:57.448Z,4.60
2018-08-03T00:34:08.740Z,4.20
2018-08-03T00:36:35.577Z,4.30
2018-08-03T00:37:36.097Z,4.50
2018-08-03T00:38:38.052Z,4.50
2018-08-03T00:39:36.215Z,4.90
2018-08-03T00:40:40.116Z,4.40
2018-08-03T00:42:57.233Z,4.70
2018-08-03T00:43:59.496Z,4.70
2018-08-03T00:45:12.509Z,4.70
2018-08-03T00:46:05.555Z,4.60
2018-08-03T00:47:09.764Z,4.70
2018-08-03T00:48:26.874Z,4.70
2018-08-03T00:50:21.464Z,4.50
2018-08-03T00:51:30.891Z,4.50
2018-08-03T00:52:44.223Z,4.40
2018-08-03T00:56:00.416Z,4.50
2018-08-03T00:57:16.503Z,4.90
2018-08-03T00:58:08.628Z,5.20
2018-08-03T01:01:30.873Z,4.80
2018-08-03T01:02:37.946Z,4.80
2018-08-03T01:04:47.079Z,4.90
2018-08-03T01:05:54.262Z,5.20
2018-08-03T01:06:48.324Z,5.40
2018-08-03T01:08:00.416Z,5.00
2018-08-03T01:09:05.547Z,5.70
2018-08-03T01:10:14.566Z,5.40
2018-08-03T01:11:14.676Z,5.20
2018-08-03T01:12:30.763Z,5.10
2018-08-03T01:13:39.783Z,5.20
2018-08-03T01:15:38.678Z,5.10
2018-08-03T01:16:59.983Z,5.10
2018-08-03T01:17:58.148Z,5.50
2018-08-03T01:18:56.309Z,5.00
2018-08-03T01:20:08.406Z,5.50
2018-08-03T01:21:23.466Z,5.30
2018-08-03T01:22:13.644Z,5.00
2018-08-03T01:23:13.448Z,5.30
2018-08-03T01:25:32.614Z,5.40
2018-08-03T01:26:55.975Z,5.40
2018-08-03T01:27:50.856Z,5.30
2018-08-03T01:29:00.085Z,5.30
2018-08-03T01:29:49.031Z,5.50
2018-08-03T01:31:09.009Z,5.20
2018-08-03T01:32:12.502Z,5.10
2018-08-03T01:32:53.357Z,5.20
2018-08-03T01:34:15.277Z,5.70
2018-08-03T01:35:04.534Z,5.10
2018-08-03T01:37:22.168Z,5.60
2018-08-03T01:39:09.590Z,5.20
2018-08-03T01:41:51.697Z,5.40
2018-08-03T01:44:42.916Z,5.40
2018-08-03T01:45:21.113Z,5.20
2018-08-03T01:46:43.242Z,5.70
2018-08-03T01:48:10.798Z,5.30
2018-08-03T01:48:51.453Z,5.60
2018-08-03T01:50:01.605Z,5.30
2018-08-03T01:51:34.280Z,5.40
2018-08-03T01:51:58.747Z,5.30
2018-08-03T01:53:21.806Z,5.60
2018-08-03T01:54:18.019Z,5.60
2018-08-03T01:55:26.119Z,5.50
2018-08-03T01:57:00.125Z,6.10
2018-08-03T01:57:25.110Z,5.60
2018-08-03T01:58:53.484Z,5.50
2018-08-03T02:00:03.219Z,5.40
2018-08-03T02:01:22.692Z,5.60
2018-08-03T02:02:09.692Z,5.80
2018-08-03T02:03:04.373Z,5.70
2018-08-03T02:04:24.451Z,5.60
2018-08-03T02:05:36.953Z,5.90
2018-08-03T02:06:22.523Z,5.80
2018-08-03T02:08:00.420Z,6.00
2018-08-03T02:09:50.921Z,5.60
2018-08-03T02:10:49.184Z,5.80
2018-08-03T02:12:08.872Z,5.70
2018-08-03T02:13:04.372Z,6.10
2018-08-03T02:13:56.686Z,5.80
2018-08-03T02:15:16.867Z,6.00
2018-08-03T02:16:06.124Z,5.80
2018-08-03T02:17:26.615Z,5.50
2018-08-03T02:18:31.028Z,5.90
2018-08-03T02:19:25.713Z,6.00
2018-08-03T02:21:48.260Z,5.70
2018-08-03T02:22:52.774Z,6.20
2018-08-03T02:23:59.848Z,6.00
2018-08-03T02:25:13.477Z,5.90
2018-08-03T02:26:11.850Z,6.10
2018-08-03T02:27:17.284Z,5.80
2018-08-03T02:28:20.365Z,6.10
2018-08-03T02:29:21.398Z,5.80
2018-08-03T02:30:42.408Z,5.60
2018-08-03T02:31:27.559Z,6.10
2018-08-03T02:33:50.004Z,6.20
2018-08-03T02:34:44.891Z,6.20
2018-08-03T02:37:05.799Z,5.60
2018-08-03T02:39:08.375Z,6.30
2018-08-03T02:40:21.393Z,5.90
2018-08-03T02:41:30.004Z,6.20
2018-08-03T02:42:32.471Z,6.20
2018-08-03T02:43:56.957Z,6.00
2018-08-03T02:45:25.839Z,6.00
2018-08-03T02:46:48.176Z,6.30
2018-08-03T02:47:55.759Z,6.10
2018-08-03T02:49:05.706Z,5.70
2018-08-03T02:50:10.114Z,6.20
2018-08-03T02:51:12.273Z,5.80
2018-08-03T02:52:20.782Z,6.10
2018-08-03T02:53:12.597Z,5.50
2018-08-03T02:54:36.976Z,6.10
2018-08-03T02:55:36.575Z,6.20
2018-08-03T02:56:32.488Z,5.80
2018-08-03T02:57:44.480Z,6.40
2018-08-03T02:58:58.007Z,6.40
2018-08-03T03:00:55.569Z,5.70
2018-08-03T03:02:11.041Z,6.10
2018-08-03T03:03:08.907Z,6.00
2018-08-03T03:04:14.747Z,6.10
2018-08-03T03:05:21.616Z,6.30
2018-08-03T03:06:28.283Z,6.00
2018-08-03T03:10:40.295Z,6.20
2018-08-03T03:12:08.364Z,6.00
2018-08-03T03:14:09.200Z,6.20
2018-08-03T03:15:05.010Z,6.20
2018-08-03T03:16:27.651Z,6.30
2018-08-03T03:17:21.926Z,6.70
2018-08-03T03:18:25.418Z,6.60
2018-08-03T03:19:29.367Z,6.50
2018-08-03T03:20:29.225Z,6.40
2018-08-03T03:21:51.667Z,6.60
2018-08-03T03:22:47.775Z,6.70
2018-08-03T03:23:52.800Z,6.50
2018-08-03T03:25:00.693Z,6.40
2018-08-03T03:26:22.616Z,6.60
2018-08-03T03:27:10.643Z,6.70
2018-08-03T03:28:25.706Z,6.70
2018-08-03T03:30:23.264Z,7.00
2018-08-03T03:31:36.590Z,6.60
2018-08-03T03:32:35.705Z,6.40
2018-08-03T03:33:40.390Z,6.20
2018-08-03T03:34:46.232Z,6.80
2018-08-03T03:35:48.392Z,6.40
2018-08-03T03:36:56.698Z,6.90
2018-08-03T03:39:04.804Z,6.90
2018-08-03T03:41:20.182Z,7.30
2018-08-03T03:42:35.555Z,6.90
2018-08-03T03:43:47.960Z,6.70
2018-08-03T03:44:40.694Z,6.20
2018-08-03T03:45:48.793Z,6.80
2018-08-03T03:46:45.834Z,6.60
2018-08-03T03:47:47.379Z,6.70
2018-08-03T03:48:54.863Z,6.50
2018-08-03T03:50:09.313Z,6.60
2018-08-03T03:51:23.249Z,6.60
2018-08-03T03:52:13.013Z,6.60
2018-08-03T03:53:22.851Z,6.40
2018-08-03T03:54:30.642Z,6.40
2018-08-03T03:55:48.982Z,6.70
2018-08-03T03:56:36.100Z,6.70
2018-08-03T03:57:43.773Z,6.80
2018-08-03T03:58:53.305Z,6.80
2018-08-03T04:01:01.220Z,6.70
2018-08-03T04:03:13.311Z,6.90
2018-08-03T04:04:13.320Z,6.80
2018-08-03T04:05:34.321Z,6.70
2018-08-03T04:06:49.282Z,6.90
2018-08-03T04:07:42.230Z,7.50
2018-08-03T04:08:42.335Z,7.40
2018-08-03T04:09:43.688Z,7.40
2018-08-03T04:10:58.177Z,7.00
2018-08-03T04:12:06.529Z,7.00
2018-08-03T04:13:08.485Z,6.80
2018-08-03T04:14:08.903Z,7.50
2018-08-03T04:15:22.021Z,7.10
2018-08-03T04:16:15.165Z,6.80
2018-08-03T04:17:24.905Z,7.30
2018-08-03T04:18:33.310Z,6.80
2018-08-03T04:19:40.692Z,7.00
2018-08-03T04:20:49.943Z,7.00
2018-08-03T04:21:49.413Z,7.40
2018-08-03T04:22:52.492Z,7.30
2018-08-03T04:23:51.373Z,7.60
2018-08-03T04:25:15.241Z,7.50
2018-08-03T04:27:08.603Z,7.70
2018-08-03T04:28:24.179Z,7.50
2018-08-03T04:30:29.932Z,7.20
2018-08-03T04:32:34.659Z,7.00
2018-08-03T04:33:46.649Z,7.20
2018-08-03T04:35:50.556Z,7.60
2018-08-03T04:37:11.864Z,7.30
2018-08-03T04:38:12.592Z,7.50
2018-08-03T04:39:20.076Z,7.20
2018-08-03T04:40:18.446Z,7.00
2018-08-03T04:41:28.492Z,7.30
2018-08-03T04:42:25.956Z,7.30
2018-08-03T04:43:45.917Z,7.50
2018-08-03T04:44:47.770Z,7.10
2018-08-03T04:46:54.547Z,7.70
2018-08-03T04:47:58.343Z,8.00
2018-08-03T04:49:01.425Z,7.60
2018-08-03T04:50:10.546Z,7.40
2018-08-03T04:51:14.753Z,7.60
2018-08-03T04:53:34.023Z,7.60
2018-08-03T04:54:29.629Z,7.30
2018-08-03T04:55:39.570Z,7.10
2018-08-03T04:57:00.879Z,7.50
2018-08-03T04:57:50.136Z,7.80
2018-08-03T04:59:46.514Z,8.30
2018-08-03T05:01:00.708Z,8.30
2018-08-03T05:02:08.609Z,8.30
2018-08-03T05:03:06.876Z,8.30
2018-08-03T05:04:15.579Z,8.40
2018-08-03T05:05:24.701Z,8.40
2018-08-03T05:08:38.548Z,8.50
2018-08-03T05:10:48.394Z,8.50
2018-08-03T05:11:52.499Z,8.80
2018-08-03T05:13:04.795Z,8.70
2018-08-03T05:14:17.911Z,8.90
2018-08-03T05:15:09.727Z,8.70
2018-08-03T05:16:30.013Z,9.00
2018-08-03T05:17:20.399Z,8.90
2018-08-03T05:18:35.866Z,8.60
2018-08-03T05:21:51.771Z,8.40
2018-08-03T05:23:04.474Z,10.10
2018-08-03T05:24:01.513Z,8.40
2018-08-03T05:24:58.657Z,8.70
2018-08-03T05:26:13.616Z,8.30
2018-08-03T05:27:22.021Z,8.30
2018-08-03T05:28:28.589Z,8.10
2018-08-03T05:29:42.826Z,8.40
2018-08-03T05:31:49.907Z,7.80
2018-08-03T05:32:56.570Z,8.90
2018-08-03T05:34:53.717Z,8.60
2018-08-03T05:35:56.620Z,8.40
2018-08-03T05:37:17.188Z,8.80
2018-08-03T05:38:11.767Z,8.80
2018-08-03T05:39:31.640Z,9.00
2018-08-03T05:40:20.897Z,9.00
2018-08-03T05:41:29.507Z,8.50
2018-08-03T05:42:34.025Z,8.80
2018-08-03T05:44:52.064Z,9.20
2018-08-03T05:45:52.688Z,9.20
2018-08-03T05:47:16.557Z,9.10
2018-08-03T05:47:52.090Z,8.70
2018-08-03T05:49:20.671Z,8.80
2018-08-03T05:50:20.216Z,8.70
2018-08-03T05:51:29.288Z,9.00
2018-08-03T05:52:42.407Z,8.90
2018-08-03T05:53:30.250Z,8.60
2018-08-03T05:54:55.331Z,8.50
2018-08-03T05:56:06.396Z,8.50
2018-08-03T05:57:01.080Z,9.00
2018-08-03T05:57:55.796Z,8.80
2018-08-03T06:00:09.504Z,8.60
2018-08-03T06:02:31.852Z,8.40
2018-08-03T06:03:17.418Z,8.30
2018-08-03T06:04:35.656Z,8.30
2018-08-03T06:05:52.568Z,9.00
2018-08-03T06:07:04.858Z,8.70
2018-08-03T06:07:46.742Z,9.60
2018-08-03T06:09:06.821Z,9.20
2018-08-03T06:11:27.117Z,8.90
2018-08-03T06:12:40.231Z,9.00
2018-08-03T06:13:59.285Z,9.50
2018-08-03T06:14:54.195Z,9.50
2018-08-03T06:16:09.444Z,8.90
2018-08-03T06:18:32.503Z,9.50
2018-08-03T06:19:35.585Z,9.20
2018-08-03T06:20:19.616Z,9.00
2018-08-03T06:21:13.994Z,9.00
2018-08-03T06:23:11.248Z,9.50
2018-08-03T06:25:30.928Z,9.60
2018-08-03T06:26:43.943Z,9.10
2018-08-03T06:29:14.170Z,8.60
2018-08-03T06:30:18.176Z,9.10
2018-08-03T06:32:22.393Z,8.80
2018-08-03T06:33:18.612Z,8.50
2018-08-03T06:34:18.620Z,9.20
2018-08-03T06:35:50.781Z,8.50
2018-08-03T06:36:25.516Z,8.70
2018-08-03T06:37:34.002Z,8.30
2018-08-03T06:38:42.922Z,8.10
2018-08-03T06:39:43.629Z,8.70
2018-08-03T06:41:56.019Z,9.30
2018-08-03T06:43:10.603Z,8.70
2018-08-03T06:43:55.766Z,8.50
2018-08-03T06:47:21.803Z,8.00
2018-08-03T06:48:31.903Z,8.00
2018-08-03T06:49:39.845Z,8.10
2018-08-03T06:50:40.776Z,7.80
2018-08-03T06:51:36.791Z,8.10
2018-08-03T06:52:50.008Z,8.30
2018-08-03T06:53:47.902Z,7.90
2018-08-03T06:55:15.319Z,7.40
2018-08-03T06:56:03.038Z,7.50
2018-08-03T06:57:12.471Z,7.50
2018-08-03T06:58:15.553Z,6.60
2018-08-03T07:01:32.885Z,8.60
2018-08-03T07:02:37.712Z,8.50
2018-08-03T07:03:41.092Z,7.80
2018-08-03T07:04:50.930Z,7.90
2018-08-03T07:05:58.109Z,7.30
2018-08-03T07:07:05.286Z,7.10
2018-08-03T07:07:59.468Z,7.40
2018-08-03T07:09:07.353Z,7.90
2018-08-03T07:11:43.824Z,7.80
2018-08-03T07:12:37.485Z,8.20
2018-08-03T07:13:49.678Z,8.20
2018-08-03T07:14:52.985Z,7.50
2018-08-03T07:15:48.465Z,7.80
2018-08-03T07:18:23.099Z,7.00
2018-08-03T07:18:57.814Z,6.40
2018-08-03T07:20:07.716Z,7.60
2018-08-03T07:21:15.649Z,6.80
2018-08-03T07:22:34.295Z,6.60
2018-08-03T07:23:34.815Z,7.00
2018-08-03T07:24:34.722Z,7.30
2018-08-03T07:25:38.314Z,7.60
2018-08-03T07:26:51.740Z,7.30
2018-08-03T07:30:00.161Z,6.60
2018-08-03T07:30:56.893Z,6.70
2018-08-03T07:32:23.322Z,6.70
2018-08-03T07:33:10.429Z,6.70
2018-08-03T07:34:16.169Z,6.50
2018-08-03T07:35:29.761Z,6.30
2018-08-03T07:36:30.420Z,6.70
2018-08-03T07:37:25.821Z,6.70
2018-08-03T07:38:33.104Z,6.90
2018-08-03T07:39:39.258Z,6.90
2018-08-03T07:40:46.024Z,7.00
2018-08-03T07:42:50.281Z,6.80
2018-08-03T07:45:14.215Z,6.80
2018-08-03T07:46:18.836Z,6.50
2018-08-03T07:48:35.848Z,6.60
2018-08-03T07:49:40.057Z,6.30
2018-08-03T07:50:44.166Z,6.20
2018-08-03T07:52:52.475Z,6.40
2018-08-03T07:54:10.405Z,6.50
2018-08-03T07:56:12.570Z,7.10
2018-08-03T07:57:25.481Z,7.10
2018-08-03T07:58:11.970Z,6.00
2018-08-03T08:00:26.733Z,6.70
2018-08-03T08:01:33.400Z,6.50
2018-08-03T08:02:32.281Z,6.70
2018-08-03T08:03:40.276Z,6.90
2018-08-03T08:04:48.382Z,6.50
2018-08-03T08:05:57.399Z,7.10
2018-08-03T08:06:57.404Z,6.70
2018-08-03T08:08:25.580Z,6.30
2018-08-03T08:10:29.172Z,6.30
2018-08-03T08:11:28.361Z,6.20
2018-08-03T08:12:27.139Z,6.30
2018-08-03T08:13:43.943Z,7.00
2018-08-03T08:14:39.548Z,6.60
2018-08-03T08:15:41.308Z,6.50
2018-08-03T08:16:44.376Z,6.60
2018-08-03T08:17:55.545Z,6.50
2018-08-03T08:18:57.195Z,6.70
2018-08-03T08:20:11.033Z,6.80
2018-08-03T08:21:15.650Z,6.40
2018-08-03T08:22:14.419Z,6.80
2018-08-03T08:23:41.669Z,6.20
2018-08-03T08:24:23.653Z,6.60
2018-08-03T08:25:34.723Z,6.40
2018-08-03T08:26:37.803Z,7.00
2018-08-03T08:27:50.407Z,6.70
2018-08-03T08:28:53.794Z,7.00
2018-08-03T08:32:13.177Z,6.80
2018-08-03T08:35:26.209Z,6.60
2018-08-03T08:36:31.657Z,6.80
2018-08-03T08:37:32.368Z,6.60
2018-08-03T08:38:43.398Z,6.90
2018-08-03T08:39:45.086Z,6.60
2018-08-03T08:40:51.134Z,6.90
2018-08-03T08:42:02.589Z,7.10
2018-08-03T08:43:02.936Z,6.80
2018-08-03T08:44:08.880Z,6.70
2018-08-03T08:45:16.682Z,6.30
2018-08-03T08:46:27.546Z,6.90
2018-08-03T08:47:32.973Z,6.90
2018-08-03T08:50:43.237Z,7.00
2018-08-03T08:51:50.619Z,7.00
2018-08-03T08:53:54.833Z,7.00
2018-08-03T08:55:08.154Z,6.90
2018-08-03T08:56:12.770Z,7.10
2018-08-03T08:57:15.028Z,6.60
2018-08-03T08:58:26.718Z,6.70
2018-08-03T08:59:32.811Z,6.80
2018-08-03T09:00:32.893Z,6.50
2018-08-03T09:02:47.430Z,6.80
2018-08-03T09:04:51.143Z,7.40
2018-08-03T09:06:10.395Z,7.30
2018-08-03T09:07:08.663Z,7.30
2018-08-03T09:09:20.048Z,7.40
2018-08-03T09:10:29.680Z,6.70
2018-08-03T09:11:37.068Z,6.90
2018-08-03T09:13:48.956Z,6.90
2018-08-03T09:14:46.203Z,6.50
2018-08-03T09:15:55.014Z,7.00
2018-08-03T09:16:55.738Z,6.80
2018-08-03T09:18:08.958Z,6.70
2018-08-03T09:19:05.077Z,6.70
2018-08-03T09:21:16.767Z,7.00
2018-08-03T09:22:30.395Z,6.70
2018-08-03T09:25:38.619Z,7.50
2018-08-03T09:26:40.879Z,7.00
2018-08-03T09:27:57.166Z,6.90
2018-08-03T09:29:04.042Z,6.70
2018-08-03T09:29:57.388Z,6.50
2018-08-03T09:31:18.185Z,6.60
2018-08-03T09:32:17.785Z,6.50
2018-08-03T09:34:33.371Z,6.50
2018-08-03T09:36:28.326Z,6.40
2018-08-03T09:38:07.391Z,6.40
2018-08-03T09:38:51.121Z,6.40
2018-08-03T09:39:47.045Z,6.50
2018-08-03T09:41:00.762Z,6.60
2018-08-03T09:43:17.480Z,6.10
2018-08-03T09:44:14.817Z,6.40
2018-08-03T09:45:26.709Z,6.50
2018-08-03T09:46:34.295Z,6.50
2018-08-03T09:48:44.658Z,6.70
2018-08-03T09:49:57.465Z,6.40
2018-08-03T09:51:11.606Z,7.10
2018-08-03T09:51:57.588Z,6.90
2018-08-03T09:53:03.745Z,6.50
2018-08-03T09:55:18.760Z,6.30
2018-08-03T09:56:19.130Z,6.60
2018-08-03T09:57:25.385Z,6.70
2018-08-03T09:58:29.488Z,6.40
2018-08-03T09:59:40.761Z,6.20
2018-08-03T10:00:37.699Z,6.00
2018-08-03T10:02:59.323Z,6.30
2018-08-03T10:04:02.613Z,6.30
2018-08-03T10:04:56.091Z,6.30
2018-08-03T10:06:09.285Z,6.30
2018-08-03T10:07:03.971Z,6.00
2018-08-03T10:09:26.924Z,6.10
2018-08-03T10:10:33.897Z,5.90
2018-08-03T10:11:36.158Z,6.20
2018-08-03T10:12:36.474Z,5.90
2018-08-03T10:13:56.040Z,6.40
2018-08-03T10:15:02.500Z,6.40
2018-08-03T10:16:00.874Z,6.10
2018-08-03T10:17:03.444Z,6.30
2018-08-03T10:18:02.017Z,6.20
2018-08-03T10:19:19.845Z,6.40
2018-08-03T10:20:26.725Z,6.30
2018-08-03T10:21:28.385Z,6.20
2018-08-03T10:22:44.251Z,6.00
2018-08-03T10:23:39.029Z,5.90
2018-08-03T10:24:40.163Z,5.90
2018-08-03T10:25:43.762Z,6.30
2018-08-03T10:27:54.629Z,6.10
2018-08-03T10:29:06.728Z,6.50
2018-08-03T10:31:10.729Z,5.90
2018-08-03T10:32:23.540Z,5.80
2018-08-03T10:33:29.999Z,5.90
2018-08-03T10:35:38.512Z,5.40
2018-08-03T10:36:37.908Z,5.90
2018-08-03T10:37:47.235Z,5.90
2018-08-03T10:38:53.597Z,6.00
2018-08-03T10:40:00.465Z,5.80
2018-08-03T10:41:00.271Z,6.00
2018-08-03T10:42:06.421Z,6.20
2018-08-03T10:43:15.249Z,5.80
2018-08-03T10:44:14.632Z,5.30
2018-08-03T10:46:28.265Z,5.10
2018-08-03T10:47:31.552Z,5.20
2018-08-03T10:48:34.661Z,5.40
2018-08-03T10:49:44.679Z,5.40
2018-08-03T10:50:47.245Z,5.40
2018-08-03T10:52:02.517Z,5.50
2018-08-03T10:53:03.966Z,5.20
2018-08-03T10:55:19.147Z,5.10
2018-08-03T10:56:25.593Z,5.30
2018-08-03T10:57:21.818Z,5.10
2018-08-03T10:58:30.016Z,4.90
2018-08-03T10:59:37.904Z,5.10
2018-08-03T11:00:44.569Z,5.30
2018-08-03T11:01:50.724Z,5.70
2018-08-03T11:02:52.577Z,5.40
2018-08-03T11:04:05.999Z,5.40
2018-08-03T11:05:10.615Z,5.80
2018-08-03T11:06:17.280Z,5.40
2018-08-03T11:07:25.893Z,5.70
2018-08-03T11:08:27.345Z,5.50
2018-08-03T11:09:21.408Z,5.60
2018-08-03T11:11:34.300Z,5.80
2018-08-03T11:12:42.935Z,5.80
2018-08-03T11:13:46.814Z,5.60
2018-08-03T11:14:56.876Z,5.80
2018-08-03T11:16:03.642Z,5.80
2018-08-03T11:17:03.239Z,5.80
2018-08-03T11:18:13.286Z,5.40
2018-08-03T11:19:27.118Z,5.80
2018-08-03T11:21:28.156Z,5.60
2018-08-03T11:22:42.808Z,5.70
2018-08-03T11:23:42.307Z,5.90
2018-08-03T11:24:34.226Z,5.60
2018-08-03T11:25:46.522Z,5.10
2018-08-03T11:26:53.190Z,5.60
2018-08-03T11:27:50.740Z,5.60
2018-08-03T11:28:58.735Z,5.60
2018-08-03T11:30:03.862Z,5.60
2018-08-03T11:31:15.237Z,5.70
2018-08-03T11:32:28.868Z,5.70
2018-08-03T11:33:26.621Z,5.90
2018-08-03T11:34:33.901Z,5.80
2018-08-03T11:35:35.856Z,5.40
2018-08-03T11:37:43.042Z,5.50
2018-08-03T11:39:04.142Z,5.60
2018-08-03T11:39:50.026Z,5.50
2018-08-03T11:41:05.797Z,5.50
2018-08-03T11:42:13.997Z,5.80
2018-08-03T11:43:13.598Z,5.80
2018-08-03T11:44:24.358Z,6.00
2018-08-03T11:45:20.781Z,6.00
2018-08-03T11:46:48.846Z,5.70
2018-08-03T11:47:42.099Z,5.70
2018-08-03T11:48:47.943Z,5.30
2018-08-03T11:49:56.247Z,5.70
2018-08-03T11:50:49.497Z,5.70
2018-08-03T11:51:59.746Z,5.80
2018-08-03T11:53:17.675Z,5.80
2018-08-03T11:54:10.827Z,5.50
2018-08-03T11:56:13.605Z,5.60
2018-08-03T11:57:29.691Z,5.90
2018-08-03T11:58:52.536Z,5.60
2018-08-03T11:59:38.719Z,6.00
2018-08-03T12:00:44.122Z,5.90
2018-08-03T12:01:49.135Z,6.00
2018-08-03T12:03:02.301Z,5.60
2018-08-03T12:04:11.527Z,5.80
2018-08-03T12:05:15.016Z,6.10
2018-08-03T12:06:05.196Z,5.70
2018-08-03T12:08:39.927Z,5.80
2018-08-03T12:09:18.735Z,5.90
2018-08-03T12:10:45.782Z,6.00
2018-08-03T12:12:17.125Z,5.70
2018-08-03T12:12:51.124Z,5.80
2018-08-03T12:13:42.537Z,5.60
2018-08-03T12:15:19.505Z,5.80
2018-08-03T12:16:03.848Z,5.80
2018-08-03T12:16:56.890Z,5.50
2018-08-03T12:18:51.894Z,5.50
2018-08-03T12:19:43.601Z,5.40
2018-08-03T12:20:23.136Z,5.70
2018-08-03T12:21:30.620Z,5.40
2018-08-03T12:23:57.068Z,5.80
2018-08-03T12:24:45.387Z,5.30
2018-08-03T12:26:10.077Z,5.40
2018-08-03T12:27:09.572Z,5.70
2018-08-03T12:28:14.918Z,5.30
2018-08-03T12:29:16.141Z,5.50
2018-08-03T12:30:29.873Z,5.50
2018-08-03T12:31:43.091Z,5.60
2018-08-03T12:33:35.735Z,5.30
2018-08-03T12:34:55.927Z,5.40
2018-08-03T12:35:49.885Z,5.50
2018-08-03T12:36:43.140Z,5.60
2018-08-03T12:38:00.670Z,5.90
2018-08-03T12:39:12.345Z,5.50
2018-08-03T12:40:13.681Z,5.80
2018-08-03T12:41:02.936Z,5.90
2018-08-03T12:42:31.010Z,5.60
2018-08-03T12:43:09.304Z,5.30
2018-08-03T12:45:34.146Z,5.50
2018-08-03T12:46:41.997Z,5.60
2018-08-03T12:47:54.397Z,5.90
2018-08-03T12:48:51.845Z,5.60
2018-08-03T12:50:11.523Z,5.90
2018-08-03T12:51:15.621Z,5.90
2018-08-03T12:53:12.977Z,5.80
2018-08-03T12:54:22.306Z,5.70
2018-08-03T12:55:21.392Z,5.90
2018-08-03T12:58:49.788Z,5.70
2018-08-03T12:59:41.174Z,6.20
2018-08-03T13:00:48.579Z,5.70
2018-08-03T13:02:03.849Z,5.70
2018-08-03T13:03:08.462Z,5.90
2018-08-03T13:04:09.019Z,5.60
2018-08-03T13:05:12.272Z,5.50
2018-08-03T13:06:25.263Z,5.50
2018-08-03T13:07:20.868Z,5.60
2018-08-03T13:08:27.133Z,5.80
2018-08-03T13:09:45.592Z,5.80
2018-08-03T13:10:42.321Z,5.80
2018-08-03T13:11:53.494Z,5.50
2018-08-03T13:12:57.805Z,5.50
2018-08-03T13:14:07.747Z,5.50
2018-08-03T13:15:04.071Z,5.70
2018-08-03T13:17:12.487Z,5.70
2018-08-03T13:21:36.770Z,5.40
2018-08-03T13:22:48.999Z,5.40
2018-08-03T13:24:00.368Z,5.50
2018-08-03T13:26:19.843Z,5.70
2018-08-03T13:26:56.915Z,5.70
2018-08-03T13:29:15.259Z,5.70
2018-08-03T13:30:23.666Z,5.70
2018-08-03T13:32:52.256Z,5.40
2018-08-03T13:33:41.927Z,5.70
2018-08-03T13:34:42.235Z,5.40
2018-08-03T13:36:07.740Z,5.30
2018-08-03T13:36:56.794Z,5.70
2018-08-03T13:38:29.283Z,5.30
2018-08-03T13:39:00.442Z,5.40
2018-08-03T13:41:22.941Z,5.40
2018-08-03T13:42:12.822Z,5.80
2018-08-03T13:43:33.210Z,5.60
2018-08-03T13:45:06.898Z,5.60
2018-08-03T13:46:46.644Z,5.90
2018-08-03T13:47:53.615Z,5.60
2018-08-03T13:49:07.140Z,5.40
2018-08-03T13:49:58.751Z,5.50
2018-08-03T13:52:24.063Z,5.50
2018-08-03T13:53:46.394Z,5.50
2018-08-03T13:54:24.697Z,5.50
2018-08-03T13:55:31.767Z,5.40
2018-08-03T13:57:01.779Z,5.70
2018-08-03T13:58:53.605Z,5.40
2018-08-03T13:59:59.350Z,5.40
2018-08-03T14:00:56.906Z,5.30
2018-08-03T14:02:29.130Z,5.50
2018-08-03T14:03:04.804Z,5.70
2018-08-03T14:04:20.944Z,5.30
2018-08-03T14:05:35.337Z,5.40
2018-08-03T14:06:24.755Z,5.70
2018-08-03T14:09:26.459Z,5.70
2018-08-03T14:10:49.210Z,5.50
2018-08-03T14:11:59.347Z,5.60
2018-08-03T14:13:21.890Z,5.70
2018-08-03T14:14:35.108Z,5.50
2018-08-03T14:15:17.193Z,5.70
2018-08-03T14:16:14.437Z,5.40
2018-08-03T14:17:35.745Z,5.70
2018-08-03T14:18:41.309Z,5.70
2018-08-03T14:19:42.311Z,5.60
2018-08-03T14:20:34.134Z,5.60
2018-08-03T14:22:01.364Z,5.90
2018-08-03T14:23:17.475Z,5.40
2018-08-03T14:23:42.048Z,5.80
2018-08-03T14:25:23.835Z,5.60
2018-08-03T14:26:06.027Z,5.80
2018-08-03T14:27:05.830Z,5.50
2018-08-03T14:31:51.976Z,5.80
2018-08-03T14:32:35.678Z,5.40
2018-08-03T14:34:03.819Z,5.70
2018-08-03T14:34:44.593Z,5.50
2018-08-03T14:37:30.912Z,5.60
2018-08-03T14:38:57.339Z,5.60
2018-08-03T14:40:53.043Z,5.50
2018-08-03T14:41:13.953Z,5.50
2018-08-03T14:42:44.764Z,5.80
2018-08-03T14:43:36.477Z,5.60
2018-08-03T14:44:57.788Z,5.40
2018-08-03T14:45:48.328Z,5.50
2018-08-03T14:46:46.832Z,5.70
2018-08-03T14:48:23.927Z,5.50
2018-08-03T14:49:13.854Z,5.40
2018-08-03T14:50:15.540Z,5.50
2018-08-03T14:51:23.345Z,5.50
2018-08-03T14:52:37.995Z,5.40
2018-08-03T14:56:03.336Z,5.40
2018-08-03T14:56:41.882Z,5.50
2018-08-03T14:59:02.343Z,5.60
2018-08-03T15:00:55.336Z,5.00
2018-08-03T15:01:33.342Z,5.40
2018-08-03T15:04:22.384Z,5.30
2018-08-03T15:05:42.341Z,5.50
2018-08-03T15:06:45.075Z,5.90
2018-08-03T15:07:37.355Z,5.60
2018-08-03T15:08:47.447Z,5.40
2018-08-03T15:10:06.613Z,5.30
2018-08-03T15:10:48.351Z,5.40
2018-08-03T15:12:58.853Z,5.40
2018-08-03T15:14:43.346Z,5.20
2018-08-03T15:15:34.189Z,5.00
2018-08-03T15:17:42.402Z,5.40
2018-08-03T15:18:31.452Z,5.30
2018-08-03T15:19:51.853Z,5.50
2018-08-03T15:21:01.680Z,5.40
2018-08-03T15:22:01.894Z,5.50
2018-08-03T15:24:09.354Z,5.30
2018-08-03T15:25:10.358Z,5.60
2018-08-03T15:26:15.354Z,5.50
2018-08-03T15:27:16.355Z,5.80
2018-08-03T15:28:22.525Z,5.90
2018-08-03T15:29:24.858Z,5.50
2018-08-03T15:30:52.648Z,5.40
2018-08-03T15:31:26.850Z,5.70
2018-08-03T15:33:01.061Z,5.30
2018-08-03T15:34:03.861Z,5.50
2018-08-03T15:35:19.918Z,5.50
2018-08-03T15:35:55.864Z,5.20
2018-08-03T15:37:15.363Z,5.40
2018-08-03T15:38:17.865Z,5.40
2018-08-03T15:39:09.366Z,5.20
2018-08-03T15:41:23.873Z,5.10
2018-08-03T15:42:43.367Z,5.30
2018-08-03T15:43:54.368Z,5.60
2018-08-03T15:44:38.368Z,5.30
2018-08-03T15:45:50.225Z,5.50
2018-08-03T15:46:55.344Z,5.60
2018-08-03T15:48:47.167Z,5.20
2018-08-03T15:49:17.370Z,5.50
2018-08-03T15:51:01.872Z,5.40
2018-08-03T15:51:35.872Z,5.30
2018-08-03T15:52:53.962Z,5.40
2018-08-03T15:53:36.355Z,5.10
2018-08-03T15:55:07.084Z,5.60
2018-08-03T15:55:58.331Z,5.30
2018-08-03T15:56:59.830Z,5.20
2018-08-03T15:58:25.441Z,5.60
2018-08-03T15:59:38.381Z,5.20
2018-08-03T16:02:02.879Z,5.30
2018-08-03T16:02:24.883Z,5.60
2018-08-03T16:04:42.289Z,5.30
2018-08-03T16:05:55.381Z,5.40
2018-08-03T16:06:59.881Z,5.40
2018-08-03T16:08:06.883Z,5.30
2018-08-03T16:09:21.884Z,5.30
2018-08-03T16:10:12.883Z,5.20
2018-08-03T16:11:29.390Z,5.50
2018-08-03T16:12:37.893Z,5.40
2018-08-03T16:13:41.387Z,5.80
2018-08-03T16:15:47.204Z,5.40
2018-08-03T16:17:44.889Z,5.50
2018-08-03T16:19:00.392Z,5.50
2018-08-03T16:21:18.893Z,5.30
2018-08-03T16:22:37.394Z,5.40
2018-08-03T16:23:26.173Z,5.80
2018-08-03T16:24:43.904Z,5.60
2018-08-03T16:25:27.692Z,5.50
2018-08-03T16:26:50.980Z,6.00
2018-08-03T16:27:51.414Z,5.70
2018-08-03T16:29:02.371Z,5.70
2018-08-03T16:29:46.898Z,6.10
2018-08-03T16:32:13.900Z,5.30
2018-08-03T16:33:16.907Z,5.50
2018-08-03T16:34:16.538Z,5.40
2018-08-03T16:35:39.896Z,5.50
2018-08-03T16:36:34.402Z,5.30
2018-08-03T16:37:43.402Z,5.00
2018-08-03T16:38:27.904Z,4.90
2018-08-03T16:39:51.405Z,5.20
2018-08-03T16:40:48.648Z,5.10
2018-08-03T16:42:58.411Z,5.10
2018-08-03T16:44:32.709Z,5.30
2018-08-03T16:45:16.907Z,5.40
2018-08-03T16:46:30.918Z,5.00
2018-08-03T16:47:31.420Z,4.90
2018-08-03T16:48:31.918Z,5.30
2018-08-03T16:49:33.872Z,5.50
2018-08-03T16:50:42.889Z,5.20
2018-08-03T16:51:51.415Z,5.00
2018-08-03T16:52:54.913Z,5.00
2018-08-03T16:54:02.166Z,5.20
2018-08-03T16:55:09.188Z,5.10
2018-08-03T16:56:04.535Z,5.40
2018-08-03T16:58:28.425Z,5.50
2018-08-03T16:59:41.421Z,5.20
2018-08-03T17:00:22.652Z,5.00
2018-08-03T17:01:36.221Z,5.00
2018-08-03T17:02:59.986Z,5.10
2018-08-03T17:03:58.422Z,5.00
2018-08-03T17:04:55.921Z,5.00
2018-08-03T17:06:02.368Z,5.20
2018-08-03T17:07:05.457Z,5.00
2018-08-03T17:08:21.021Z,5.10
2018-08-03T17:09:19.422Z,4.90
2018-08-03T17:11:22.386Z,5.10
2018-08-03T17:12:23.730Z,4.70
2018-08-03T17:13:44.322Z,4.80